Time;durP1;ratioP1;P1;durP2;ratioP2;P2;SDS_P1;SDS_P2;PMS_P1;PMS_P2;Temp;Humidity;BMP_temperature;BMP_pressure;BME280_temperature;BME280_humidity;BME280_pressure;Samples;Min_cycle;Max_cycle;Signal;HPM_P1;HPM_P2
2023/07/27 00:01:19;;;;;;;2.97;2.63;;;;;;;13.71;75.13;95493.63;4851234;29;20698;-80
2023/07/27 00:03:44;;;;;;;3.37;2.70;;;;;;;13.70;75.38;95486.00;4871827;29;20218;-80
2023/07/27 00:06:10;;;;;;;4.50;2.70;;;;;;;13.63;75.32;95496.28;4874329;29;20210;-80
2023/07/27 00:08:35;;;;;;;4.43;2.70;;;;;;;13.61;75.13;95495.63;4860810;29;20228;-80
2023/07/27 00:11:00;;;;;;;3.97;2.40;;;;;;;13.60;75.59;95496.59;4856406;29;20221;-80
2023/07/27 00:13:26;;;;;;;3.33;2.70;;;;;;;13.53;75.61;95498.25;4851355;29;20221;-80
2023/07/27 00:15:51;;;;;;;3.93;2.70;;;;;;;13.51;76.13;95490.56;4862263;29;20224;-79
2023/07/27 00:18:16;;;;;;;3.83;3.13;;;;;;;13.43;75.76;95480.19;4869581;29;20231;-79
2023/07/27 00:20:42;;;;;;;3.97;3.13;;;;;;;13.36;75.83;95483.63;4860231;29;20195;-79
2023/07/27 00:23:07;;;;;;;5.33;3.20;;;;;;;13.28;76.47;95477.44;4856107;29;20212;-79
2023/07/27 00:25:32;;;;;;;4.57;2.93;;;;;;;13.30;76.60;95479.88;4853112;29;20201;-80
2023/07/27 00:27:58;;;;;;;3.70;2.97;;;;;;;13.23;77.14;95473.69;4865130;29;20285;-79
2023/07/27 00:30:24;;;;;;;3.23;2.70;;;;;;;13.27;76.73;95475.81;4861679;29;20816;-79
2023/07/27 00:32:49;;;;;;;2.93;2.53;;;;;;;13.20;76.97;95480.06;4862294;29;20216;-79
2023/07/27 00:35:14;;;;;;;2.70;2.50;;;;;;;13.24;76.76;95475.31;4862613;29;20217;-80
2023/07/27 00:37:40;;;;;;;3.00;2.50;;;;;;;13.22;76.85;95467.66;4869475;29;20191;-80
2023/07/27 00:40:05;;;;;;;3.70;2.43;;;;;;;13.15;77.37;95468.44;4865845;29;20223;-80
2023/07/27 00:42:31;;;;;;;5.63;2.67;;;;;;;13.17;77.52;95464.72;4870734;29;20208;-79
2023/07/27 00:44:56;;;;;;;4.47;2.63;;;;;;;13.18;77.69;95460.31;4847496;29;20191;-79
2023/07/27 00:47:21;;;;;;;2.83;2.40;;;;;;;13.22;76.95;95457.22;4865072;29;20196;-80
2023/07/27 00:49:47;;;;;;;3.53;2.60;;;;;;;13.13;77.12;95452.16;4876042;29;20690;-80
2023/07/27 00:52:12;;;;;;;3.27;2.90;;;;;;;13.08;77.28;95460.50;4860294;29;20207;-80
2023/07/27 00:54:37;;;;;;;3.40;2.83;;;;;;;13.05;77.43;95456.41;4864185;29;20205;-81
2023/07/27 00:57:03;;;;;;;4.33;2.50;;;;;;;13.02;77.62;95450.72;4862567;29;20204;-80
2023/07/27 00:59:28;;;;;;;5.67;2.87;;;;;;;12.97;77.83;95456.41;4868231;29;20703;-80
2023/07/27 01:01:54;;;;;;;3.77;2.67;;;;;;;12.89;77.92;95447.78;4870289;29;20212;-80
2023/07/27 01:04:19;;;;;;;5.67;3.00;;;;;;;12.83;78.54;95441.44;4867022;29;20198;-80
2023/07/27 01:06:45;;;;;;;3.40;3.10;;;;;;;12.89;78.78;95442.56;4847257;29;20279;-80
2023/07/27 01:09:10;;;;;;;3.70;2.70;;;;;;;12.92;78.11;95439.66;4862251;29;20264;-80
2023/07/27 01:12:01;;;;;;;3.00;2.57;;;;;;;12.93;77.93;95436.88;4870384;29;20551;-80
2023/07/27 01:14:31;;;;;;;4.40;3.23;;;;;;;12.79;78.97;95424.50;4868587;29;20223;-80
2023/07/27 01:17:02;;;;;;;3.47;3.17;;;;;;;12.90;78.62;95423.38;4865082;29;20176;-80
2023/07/27 01:19:49;;;;;;;3.00;2.53;;;;;;;12.94;78.61;95427.25;4890167;29;20208;-79
2023/07/27 01:22:30;;;;;;;6.23;2.90;;;;;;;12.91;78.72;95431.03;4881020;29;20218;-80
2023/07/27 01:25:07;;;;;;;3.17;2.80;;;;;;;12.93;78.72;95423.84;4852807;29;20199;-80
2023/07/27 01:28:13;;;;;;;2.80;2.50;;;;;;;12.94;78.21;95429.88;4865476;29;20189;-79
2023/07/27 01:30:53;;;;;;;3.00;2.70;;;;;;;12.97;78.48;95422.53;4860860;29;20191;-79
2023/07/27 01:33:31;;;;;;;3.10;2.63;;;;;;;12.96;78.40;95417.47;4847316;29;20241;-80
2023/07/27 01:36:17;;;;;;;3.43;2.30;;;;;;;12.99;78.19;95406.75;4872837;29;20213;-80
2023/07/27 01:38:44;;;;;;;3.07;2.53;;;;;;;12.99;77.79;95402.34;4871607;29;20303;-80
2023/07/27 01:41:10;;;;;;;4.63;3.20;;;;;;;13.02;78.24;95409.00;4865354;29;20189;-79
2023/07/27 01:43:36;;;;;;;4.67;2.90;;;;;;;12.90;79.09;95405.94;4862079;29;20212;-80
2023/07/27 01:46:02;;;;;;;5.63;2.67;;;;;;;12.94;78.33;95396.81;4862087;29;20283;-80
2023/07/27 01:48:27;;;;;;;3.07;2.77;;;;;;;12.93;78.49;95399.56;4863061;29;20291;-81
2023/07/27 01:50:54;;;;;;;3.80;3.10;;;;;;;12.94;78.52;95394.19;4871814;29;20536;-80
2023/07/27 01:53:20;;;;;;;3.10;2.43;;;;;;;13.04;78.31;95399.22;4863747;29;20212;-80
2023/07/27 01:55:46;;;;;;;3.00;2.70;;;;;;;13.14;78.27;95389.41;4878812;29;20260;-80
2023/07/27 01:58:12;;;;;;;5.70;2.87;;;;;;;13.07;78.29;95393.66;4859564;29;20697;-81
2023/07/27 02:00:38;;;;;;;3.10;2.80;;;;;;;13.04;78.66;95380.97;4869358;29;20219;-79
2023/07/27 02:03:04;;;;;;;4.57;2.20;;;;;;;13.12;78.36;95378.34;4861534;29;20324;-80
2023/07/27 02:05:30;;;;;;;3.63;2.73;;;;;;;13.15;78.57;95382.41;4862213;29;20195;-80
2023/07/27 02:07:55;;;;;;;5.03;2.90;;;;;;;13.17;78.17;95385.69;4861293;29;20227;-80
2023/07/27 02:10:21;;;;;;;3.30;2.63;;;;;;;13.18;78.14;95379.50;4874140;29;20199;-80
2023/07/27 02:12:53;;;;;;;3.20;2.67;;;;;;;13.19;78.28;95381.13;4854285;29;20226;-79
2023/07/27 02:15:23;;;;;;;4.27;2.47;;;;;;;13.20;78.30;95378.38;4868486;29;20188;-80
2023/07/27 02:17:53;;;;;;;4.63;2.80;;;;;;;13.25;78.14;95377.84;4874061;29;20558;-80
2023/07/27 02:20:19;;;;;;;4.00;2.70;;;;;;;13.21;78.42;95372.16;4844720;29;20665;-79
2023/07/27 02:22:46;;;;;;;3.53;2.33;;;;;;;13.17;78.75;95376.06;4846740;29;20311;-80
2023/07/27 02:25:11;;;;;;;5.87;2.73;;;;;;;13.11;78.76;95368.91;4860751;29;20344;-80
2023/07/27 02:27:37;;;;;;;3.07;2.77;;;;;;;13.31;77.89;95362.34;4870597;29;20275;-79
2023/07/27 02:30:02;;;;;;;5.50;2.50;;;;;;;13.37;78.14;95358.25;4861317;29;20332;-79
2023/07/27 02:32:28;;;;;;;4.87;2.53;;;;;;;13.40;77.98;95350.09;4868879;29;20260;-79
2023/07/27 02:34:53;;;;;;;4.60;2.90;;;;;;;13.42;77.62;95342.09;4863186;29;20659;-79
2023/07/27 02:37:18;;;;;;;4.00;2.73;;;;;;;13.35;77.99;95344.59;4866573;29;20292;-79
2023/07/27 02:39:43;;;;;;;7.37;2.77;;;;;;;13.40;77.56;95339.66;4853884;29;20220;-80
2023/07/27 02:42:09;;;;;;;4.40;2.50;;;;;;;13.47;77.74;95339.78;4858058;29;20216;-80
2023/07/27 02:44:34;;;;;;;2.70;2.50;;;;;;;13.37;77.79;95334.78;4876729;29;20199;-80
2023/07/27 02:46:59;;;;;;;4.17;2.73;;;;;;;13.40;77.91;95331.84;4858252;29;20200;-80
2023/07/27 02:49:25;;;;;;;4.13;2.60;;;;;;;13.46;77.67;95325.13;4852543;29;20569;-80
2023/07/27 02:51:50;;;;;;;2.93;2.50;;;;;;;13.42;77.52;95322.03;4859550;29;20691;-80
2023/07/27 02:54:15;;;;;;;2.83;2.63;;;;;;;13.33;78.06;95323.88;4858678;29;20564;-80
2023/07/27 02:56:41;;;;;;;2.60;2.40;;;;;;;13.33;78.13;95329.09;4859522;29;20196;-80
2023/07/27 02:59:06;;;;;;;3.70;2.80;;;;;;;13.30;78.08;95334.66;4862302;29;20243;-80
2023/07/27 03:01:31;;;;;;;2.80;2.50;;;;;;;13.32;78.16;95335.28;4859601;29;20275;-81
2023/07/27 03:03:56;;;;;;;3.77;2.27;;;;;;;13.47;77.59;95339.78;4865344;29;20565;-79
2023/07/27 03:06:22;;;;;;;3.57;2.70;;;;;;;13.40;77.69;95331.84;4862127;29;20700;-80
2023/07/27 03:08:47;;;;;;;4.13;2.30;;;;;;;13.41;77.88;95333.44;4872891;29;20192;-80
2023/07/27 03:11:12;;;;;;;5.70;2.50;;;;;;;13.48;77.57;95336.19;4872138;29;20722;-80
2023/07/27 03:13:38;;;;;;;2.80;2.50;;;;;;;13.58;77.05;95339.41;4852447;29;20665;-80
2023/07/27 03:16:04;;;;;;;3.67;2.40;;;;;;;13.48;77.50;95333.59;4860956;29;20204;-80
2023/07/27 03:18:29;;;;;;;3.33;2.50;;;;;;;13.54;77.04;95331.13;4833195;29;20215;-81
2023/07/27 03:20:54;;;;;;;3.20;2.70;;;;;;;13.56;76.82;95333.56;4859619;29;20195;-80
2023/07/27 03:23:20;;;;;;;3.60;2.47;;;;;;;13.60;76.56;95330.44;4857177;29;20223;-81
2023/07/27 03:25:45;;;;;;;4.00;2.60;;;;;;;13.59;76.99;95323.56;4850822;29;20196;-80
2023/07/27 03:28:10;;;;;;;2.77;2.43;;;;;;;13.56;77.08;95325.72;4868999;29;20200;-80
2023/07/27 03:30:38;;;;;;;3.50;3.00;;;;;;;13.49;77.34;95316.94;4856924;29;20200;-80
2023/07/27 03:33:03;;;;;;;3.40;2.27;;;;;;;13.56;76.62;95310.06;4859762;29;20311;-81
2023/07/27 03:35:29;;;;;;;3.20;2.80;;;;;;;13.59;76.96;95314.94;4856494;29;20325;-80
2023/07/27 03:37:54;;;;;;;4.73;2.77;;;;;;;13.60;76.81;95309.56;4853741;29;20705;-80
2023/07/27 03:40:20;;;;;;;2.93;2.63;;;;;;;13.64;76.34;95306.63;4868318;29;20241;-80
2023/07/27 03:42:45;;;;;;;3.07;2.40;;;;;;;13.64;76.39;95307.41;4856045;29;20219;-80
2023/07/27 03:45:13;;;;;;;2.80;2.60;;;;;;;13.65;76.54;95303.81;4875246;29;20196;-80
2023/07/27 03:47:38;;;;;;;3.83;2.40;;;;;;;13.62;76.74;95305.97;4862604;29;20203;-81
2023/07/27 03:50:04;;;;;;;3.87;2.70;;;;;;;13.59;76.71;95299.28;4858055;29;20201;-80
2023/07/27 03:52:30;;;;;;;2.50;2.30;;;;;;;13.61;76.63;95294.72;4850751;29;20921;-80
2023/07/27 03:54:55;;;;;;;3.13;2.70;;;;;;;13.61;76.75;95294.72;4859096;29;20216;-81
2023/07/27 03:57:20;;;;;;;2.80;2.50;;;;;;;13.56;76.63;95292.63;4861495;29;20215;-81
2023/07/27 03:59:46;;;;;;;2.93;2.40;;;;;;;13.50;77.06;95293.31;4857684;29;20242;-80
2023/07/27 04:02:11;;;;;;;3.30;2.60;;;;;;;13.45;77.00;95294.81;4853966;29;20337;-81
2023/07/27 04:04:36;;;;;;;2.90;2.70;;;;;;;13.55;76.78;95298.81;4850689;29;20197;-81
2023/07/27 04:07:01;;;;;;;3.50;2.80;;;;;;;13.54;76.90;95288.56;4844514;29;20224;-81
2023/07/27 04:09:27;;;;;;;3.17;2.80;;;;;;;13.61;76.16;95289.50;4841439;29;20279;-81
2023/07/27 04:11:52;;;;;;;2.87;2.33;;;;;;;13.50;77.02;95284.66;4861347;29;20690;-81
2023/07/27 04:14:18;;;;;;;2.27;2.07;;;;;;;13.62;76.19;95287.72;4850056;29;20197;-81
2023/07/27 04:16:43;;;;;;;7.23;2.50;;;;;;;13.63;76.34;95290.16;4853431;29;20666;-80
2023/07/27 04:19:09;;;;;;;3.40;2.80;;;;;;;13.49;77.02;95283.84;4855831;29;20204;-81
2023/07/27 04:21:34;;;;;;;2.73;2.40;;;;;;;13.65;76.40;95276.91;4852998;29;20227;-81
2023/07/27 04:23:59;;;;;;;3.57;2.60;;;;;;;13.63;76.03;95278.91;4855951;29;20199;-85
2023/07/27 04:26:25;;;;;;;4.53;2.37;;;;;;;13.68;75.83;95282.59;4853834;29;20189;-84
2023/07/27 04:28:50;;;;;;;3.27;2.70;;;;;;;13.74;75.82;95274.09;4866961;29;20200;-85
2023/07/27 04:31:15;;;;;;;3.50;2.60;;;;;;;13.72;75.79;95276.06;4846753;29;20204;-82
2023/07/27 04:33:40;;;;;;;3.53;2.60;;;;;;;13.75;75.65;95275.69;4858783;29;20228;-81
2023/07/27 04:36:06;;;;;;;2.70;2.50;;;;;;;13.74;75.67;95281.09;4859405;29;20196;-82
2023/07/27 04:38:31;;;;;;;3.23;2.50;;;;;;;13.76;75.73;95277.31;4864122;29;20620;-83
2023/07/27 04:40:58;;;;;;;2.50;2.30;;;;;;;13.83;75.59;95270.44;4865390;29;20677;-84
2023/07/27 04:43:23;;;;;;;4.50;2.40;;;;;;;13.74;75.51;95273.28;4844175;29;20588;-83
2023/07/27 04:45:48;;;;;;;3.90;2.60;;;;;;;13.82;75.19;95281.84;4858317;29;20197;-84
2023/07/27 04:48:13;;;;;;;2.73;2.37;;;;;;;13.85;75.34;95286.72;4861338;29;20196;-83
2023/07/27 04:50:39;;;;;;;4.17;3.23;;;;;;;13.95;74.80;95288.28;4859175;29;20663;-83
2023/07/27 04:53:04;;;;;;;2.60;2.40;;;;;;;13.96;75.07;95280.31;4861339;29;20212;-83
2023/07/27 04:55:29;;;;;;;3.17;2.63;;;;;;;13.99;74.68;95281.75;4863961;29;20213;-83
2023/07/27 04:57:55;;;;;;;3.57;2.30;;;;;;;13.98;75.05;95287.97;4862784;29;20195;-84
2023/07/27 05:00:20;;;;;;;4.73;2.40;;;;;;;14.05;74.88;95289.69;4861016;29;20204;-84
2023/07/27 05:02:46;;;;;;;3.47;2.57;;;;;;;14.14;74.42;95288.66;4855762;29;20219;-83
2023/07/27 05:05:14;;;;;;;3.50;2.40;;;;;;;14.23;74.06;95289.41;4857847;29;20204;-80
2023/07/27 05:07:39;;;;;;;3.47;2.70;;;;;;;14.32;73.61;95283.09;4857479;29;20200;-79
2023/07/27 05:10:05;;;;;;;3.63;2.50;;;;;;;14.32;73.50;95282.28;4878685;29;20545;-83
2023/07/27 05:12:32;;;;;;;3.73;2.30;;;;;;;14.40;73.07;95285.66;4877337;29;20216;-84
2023/07/27 05:14:59;;;;;;;3.47;2.40;;;;;;;14.66;71.88;95287.84;4875376;29;20189;-82
2023/07/27 05:17:27;;;;;;;3.77;2.30;;;;;;;14.71;71.64;95287.34;4870955;29;20221;-81
2023/07/27 05:19:53;;;;;;;4.17;2.67;;;;;;;14.84;71.39;95281.47;4862110;29;20230;-83
2023/07/27 05:22:21;;;;;;;2.90;2.37;;;;;;;14.98;70.83;95276.25;4860281;29;20298;-83
2023/07/27 05:24:46;;;;;;;2.23;2.03;;;;;;;15.17;70.06;95277.50;4861532;29;20194;-80
2023/07/27 05:27:12;;;;;;;3.58;2.53;;;;;;;15.16;69.63;95270.63;4862157;29;20630;-82
2023/07/27 05:29:37;;;;;;;4.23;2.40;;;;;;;15.27;69.43;95274.59;4856377;29;20710;-82
2023/07/27 05:32:03;;;;;;;4.60;2.10;;;;;;;15.29;69.09;95267.38;4859038;29;20244;-83
2023/07/27 05:34:28;;;;;;;2.70;2.20;;;;;;;15.30;69.43;95267.19;4857539;29;20192;-84
2023/07/27 05:36:53;;;;;;;3.97;2.40;;;;;;;15.09;69.79;95272.34;4864337;29;20204;-79
2023/07/27 05:39:19;;;;;;;2.75;2.40;;;;;;;15.34;69.23;95272.88;4867751;29;20219;-78
2023/07/27 05:41:44;;;;;;;3.47;2.40;;;;;;;15.42;68.82;95275.38;4861772;29;20236;-78
2023/07/27 05:44:09;;;;;;;5.45;2.20;;;;;;;15.53;69.13;95271.47;4874381;29;20274;-78
2023/07/27 05:46:37;;;;;;;3.80;2.47;;;;;;;15.49;68.74;95271.03;4878419;29;20362;-80
2023/07/27 05:49:03;;;;;;;2.38;2.17;;;;;;;15.61;68.98;95274.00;4848015;29;20204;-80
2023/07/27 05:51:29;;;;;;;6.60;2.28;;;;;;;15.53;69.58;95271.47;4863305;29;20195;-81
2023/07/27 05:53:54;;;;;;;3.08;2.40;;;;;;;15.70;68.64;95270.28;4857125;29;20564;-81
2023/07/27 05:56:20;;;;;;;3.40;2.40;;;;;;;15.78;68.66;95278.00;4869828;29;20270;-80
2023/07/27 05:58:46;;;;;;;2.80;2.42;;;;;;;15.82;68.35;95278.47;4878842;29;20207;-80
2023/07/27 06:01:11;;;;;;;3.50;2.28;;;;;;;15.62;69.40;95274.81;4859706;29;20286;-80
2023/07/27 06:03:36;;;;;;;2.72;2.40;;;;;;;15.45;69.84;95280.22;4861267;29;20919;-81
2023/07/27 06:06:02;;;;;;;3.22;2.80;;;;;;;15.45;70.04;95277.63;4861259;29;20192;-81
2023/07/27 06:08:28;;;;;;;4.70;2.50;;;;;;;15.65;69.55;95282.31;4875871;29;20218;-80
2023/07/27 06:11:04;;;;;;;4.32;2.83;;;;;;;15.82;69.00;95281.09;4845360;29;20821;-80
2023/07/27 06:13:30;;;;;;;6.18;2.80;;;;;;;15.58;69.28;95285.63;4861546;29;20208;-80
2023/07/27 06:15:56;;;;;;;3.72;2.67;;;;;;;15.69;69.00;95291.41;4867373;29;20180;-80
2023/07/27 06:18:21;;;;;;;2.88;2.25;;;;;;;15.83;69.11;95283.50;4870809;29;20591;-80
2023/07/27 06:20:46;;;;;;;2.65;2.30;;;;;;;15.93;69.29;95283.19;4862315;29;20214;-79
2023/07/27 06:23:12;;;;;;;3.05;2.75;;;;;;;15.94;69.25;95282.19;4860950;29;20215;-79
2023/07/27 06:25:42;;;;;;;2.28;2.03;;;;;;;15.73;69.63;95279.59;4858792;29;20191;-79
2023/07/27 06:28:07;;;;;;;3.22;2.60;;;;;;;15.98;69.39;95278.19;4855814;29;20199;-80
2023/07/27 06:30:35;;;;;;;4.47;2.80;;;;;;;15.99;69.79;95277.22;4853177;29;20193;-82
2023/07/27 06:33:00;;;;;;;2.95;2.45;;;;;;;15.82;71.05;95283.69;4874167;29;20610;-82
2023/07/27 06:35:25;;;;;;;3.10;2.80;;;;;;;16.12;70.67;95277.31;4861039;29;20191;-79
2023/07/27 06:37:51;;;;;;;2.63;2.42;;;;;;;15.82;71.31;95281.91;4858215;29;20210;-81
2023/07/27 06:40:16;;;;;;;3.17;2.88;;;;;;;15.94;72.20;95273.53;4855653;29;20216;-80
2023/07/27 06:42:42;;;;;;;4.68;2.47;;;;;;;16.25;70.78;95273.19;4852501;29;20722;-79
2023/07/27 06:45:07;;;;;;;3.30;2.55;;;;;;;16.14;70.70;95267.47;4873226;29;20188;-79
2023/07/27 06:47:33;;;;;;;3.50;2.40;;;;;;;16.38;71.05;95273.31;4878845;29;20717;-79
2023/07/27 06:49:58;;;;;;;2.60;2.40;;;;;;;16.35;70.79;95261.41;4877675;29;20191;-80
2023/07/27 06:52:23;;;;;;;2.65;2.45;;;;;;;16.39;70.74;95264.44;4857824;29;20594;-82
2023/07/27 06:54:48;;;;;;;5.00;2.58;;;;;;;16.17;71.78;95273.31;4868174;29;20200;-78
2023/07/27 06:57:14;;;;;;;4.10;2.83;;;;;;;16.12;71.43;95264.22;4859601;29;20257;-82
2023/07/27 06:59:39;;;;;;;3.72;2.75;;;;;;;16.29;71.48;95262.16;4858712;29;20209;-80
2023/07/27 07:02:05;;;;;;;5.95;2.47;;;;;;;16.33;71.31;95267.81;4858982;29;20586;-80
2023/07/27 07:04:31;;;;;;;3.95;2.63;;;;;;;16.39;70.32;95261.81;4866659;29;20728;-81
2023/07/27 07:06:57;;;;;;;2.90;2.50;;;;;;;16.53;69.75;95255.69;4861017;29;20318;-80
2023/07/27 07:09:22;;;;;;;2.50;2.30;;;;;;;16.41;69.40;95252.75;4872857;29;20276;-80
2023/07/27 07:11:48;;;;;;;6.53;2.70;;;;;;;16.65;69.47;95246.28;4859401;29;20310;-80
2023/07/27 07:14:13;;;;;;;3.55;2.60;;;;;;;16.46;68.96;95246.16;4846918;29;20574;-80
2023/07/27 07:16:38;;;;;;;3.90;2.70;;;;;;;16.40;69.90;95242.47;4860274;29;20203;-82
2023/07/27 07:19:07;;;;;;;3.85;2.60;;;;;;;16.35;69.16;95239.63;4869065;29;20239;-82
2023/07/27 07:21:37;;;;;;;4.00;2.60;;;;;;;16.32;69.82;95242.63;4859895;29;20215;-85
2023/07/27 07:24:06;;;;;;;3.72;2.15;;;;;;;16.36;69.83;95247.31;4859001;29;20200;-85
2023/07/27 07:26:31;;;;;;;3.83;2.45;;;;;;;16.06;69.72;95256.31;4856458;29;20196;-84
2023/07/27 07:28:56;;;;;;;6.57;2.38;;;;;;;15.85;71.22;95250.09;4868800;29;20251;-81
2023/07/27 07:31:22;;;;;;;2.70;2.50;;;;;;;16.00;71.32;95247.41;4851237;29;20204;-81
2023/07/27 07:33:47;;;;;;;3.92;2.53;;;;;;;16.03;71.18;95241.78;4864398;29;20216;-80
2023/07/27 07:36:12;;;;;;;3.90;2.40;;;;;;;15.95;71.44;95243.72;4853057;29;20189;-81
2023/07/27 07:38:38;;;;;;;4.82;2.90;;;;;;;16.14;70.68;95241.28;4861881;29;20204;-80
2023/07/27 07:41:03;;;;;;;3.33;2.90;;;;;;;16.27;70.44;95239.78;4870318;29;20193;-81
2023/07/27 07:43:28;;;;;;;5.95;2.55;;;;;;;16.28;70.27;95242.19;4854412;29;20279;-82
2023/07/27 07:45:54;;;;;;;2.88;2.50;;;;;;;16.35;70.15;95237.00;4872263;29;20196;-80
2023/07/27 07:52:45;;;;;;;3.10;2.70;;;;;;;16.78;68.44;95223.78;4868237;29;20196;-83
2023/07/27 07:56:04;;;;;;;3.33;2.47;;;;;;;17.02;67.83;95219.88;4848788;29;20216;-84
2023/07/27 07:58:39;;;;;;;3.70;2.70;;;;;;;17.18;66.81;95212.47;4823651;29;20655;-83
2023/07/27 08:04:54;;;;;;;3.35;2.50;;;;;;;17.32;66.13;95204.66;4757307;30;20196;-82
2023/07/27 08:08:09;;;;;;;;;;;;;;;;;;;;;
2023/07/27 08:14:49;;;;;;;;;;;;;;;;;;;;;
2023/07/27 08:17:36;;;;;;;2.55;2.22;;;;;;;17.16;66.93;95213.69;4711825;30;20254;-83
2023/07/27 08:21:04;;;;;;;;;;;;;;;;;;;;;
2023/07/27 08:26:57;;;;;;;2.63;1.80;;;;;;;17.07;66.00;95178.94;4688942;30;20194;-84
2023/07/27 08:33:29;;;;;;;2.25;1.38;;;;;;;17.47;65.05;95168.53;4681236;30;20227;-85
2023/07/27 08:43:20;;;;;;;;;;;;;;;;;;;;;
2023/07/27 08:46:14;;;;;;;4.70;1.90;;;;;;;17.48;64.63;95151.78;4739737;30;20788;-84
2023/07/27 08:56:00;;;;;;;4.00;2.58;;;;;;;17.52;65.92;95163.53;4715887;30;20684;-84
2023/07/27 08:59:11;;;;;;;2.80;2.00;;;;;;;17.66;65.27;95161.69;4676509;30;20257;-84
2023/07/27 09:02:15;;;;;;;3.65;2.30;;;;;;;17.45;66.56;95162.69;4663963;30;20312;-84
2023/07/27 09:05:24;;;;;;;2.33;1.85;;;;;;;17.47;66.10;95163.28;4666050;30;20200;-83
2023/07/27 09:12:17;;;;;;;;;;;;;;;;;;;;;
2023/07/27 09:15:37;;;;;;;;;;;;;;;;;;;;;
2023/07/27 09:18:40;;;;;;;3.45;2.35;;;;;;;17.48;67.15;95188.53;4736451;30;20223;-83
2023/07/27 09:21:45;;;;;;;3.20;2.20;;;;;;;17.39;67.94;95185.28;4750499;30;20204;-83
2023/07/27 09:24:59;;;;;;;5.88;2.50;;;;;;;17.34;68.63;95185.09;4734347;30;20669;-84
2023/07/27 09:28:10;;;;;;;2.63;2.30;;;;;;;17.52;68.23;95189.78;4737226;30;20205;-84
2023/07/27 09:31:36;;;;;;;;;;;;;;;;;;;;;
2023/07/27 09:38:30;;;;;;;6.80;2.20;;;;;;;17.45;67.11;95188.94;4703745;30;20756;-83
2023/07/27 09:42:04;;;;;;;4.20;2.47;;;;;;;17.38;66.72;95177.59;4712654;30;20209;-84
2023/07/27 09:45:16;;;;;;;4.45;2.30;;;;;;;17.70;65.88;95181.34;4641779;30;20212;-83
2023/07/27 09:47:44;;;;;;;5.68;2.58;;;;;;;17.83;65.68;95183.97;4641231;30;20231;-84
2023/07/27 09:54:44;;;;;;;7.15;3.13;;;;;;;18.21;65.58;95167.63;4605740;31;20234;-85
2023/07/27 09:57:30;;;;;;;2.50;1.92;;;;;;;18.63;62.92;95175.00;4619021;31;20259;-85
2023/07/27 10:04:29;;;;;;;;;;;;;;;;;;;;;
2023/07/27 10:07:16;;;;;;;5.60;2.40;;;;;;;19.26;61.12;95166.53;4619249;31;20277;-86
2023/07/27 10:10:53;;;;;;;4.05;2.05;;;;;;;19.75;60.70;95163.19;4616504;31;20214;-85
2023/07/27 10:17:07;;;;;;;3.25;2.20;;;;;;;20.51;57.53;95159.53;4645457;30;20217;-84
2023/07/27 10:20:04;;;;;;;3.65;2.25;;;;;;;20.93;55.51;95157.03;4631884;31;21031;-82
2023/07/27 10:23:23;;;;;;;3.60;1.88;;;;;;;20.88;55.37;95143.72;4726724;30;20228;-81
2023/07/27 10:26:21;;;;;;;3.25;2.05;;;;;;;21.58;54.70;95141.41;4726047;30;20200;-83
2023/07/27 10:29:32;;;;;;;2.78;1.92;;;;;;;20.55;53.66;95144.88;4771772;29;20198;-82
2023/07/27 10:33:02;;;;;;;1.88;1.65;;;;;;;20.85;53.82;95136.25;4799297;29;20228;-84
2023/07/27 10:36:26;;;;;;;;;;;;;;;;;;;;;
2023/07/27 10:39:47;;;;;;;4.43;2.00;;;;;;;20.49;53.89;95116.72;4741176;30;20304;-84
2023/07/27 10:47:32;;;;;;;2.38;1.50;;;;;;;21.18;52.30;95117.31;4859042;29;20711;-82
2023/07/27 10:50:13;;;;;;;;;;;;;;;;;;;;;
2023/07/27 10:56:48;;;;;;;;;;;;;;;;;;;;;
2023/07/27 11:54:27;;;;;;;2.35;1.77;;;;;;;20.07;60.41;95086.72;3379697;23;20503;-83
2023/07/27 11:56:54;;;;;;;3.08;2.00;;;;;;;20.30;60.89;95089.50;4872113;29;20207;-79
2023/07/27 11:59:20;;;;;;;5.10;1.85;;;;;;;20.13;62.50;95083.19;4870540;29;20205;-80
2023/07/27 12:01:47;;;;;;;3.55;1.80;;;;;;;20.08;63.62;95085.69;4857146;29;20268;-78
2023/07/27 12:04:13;;;;;;;4.35;1.80;;;;;;;19.73;63.58;95085.41;4875406;29;20246;-77
2023/07/27 12:06:38;;;;;;;2.15;1.50;;;;;;;19.62;64.83;95088.75;4860754;29;20666;-77
2023/07/27 12:09:07;;;;;;;2.42;2.08;;;;;;;19.66;64.71;95092.53;4868809;29;20179;-77
2023/07/27 12:11:33;;;;;;;2.60;1.75;;;;;;;19.38;66.27;95090.28;4865592;29;20218;-76
2023/07/27 12:14:03;;;;;;;2.65;2.20;;;;;;;19.40;68.56;95096.94;4861467;29;20244;-77
2023/07/27 12:16:38;;;;;;;2.17;1.90;;;;;;;19.44;68.99;95099.97;4868327;29;20192;-78
2023/07/27 12:19:04;;;;;;;2.20;2.00;;;;;;;19.02;69.94;95091.72;4876309;29;20234;-77
2023/07/27 12:21:29;;;;;;;3.28;2.20;;;;;;;19.20;70.15;95091.00;4865958;29;20192;-77
2023/07/27 12:23:54;;;;;;;5.13;2.00;;;;;;;19.19;69.94;95092.03;4861428;29;20207;-79
2023/07/27 12:26:20;;;;;;;2.40;2.20;;;;;;;19.12;71.17;95089.44;4855540;29;20594;-78
2023/07/27 12:28:45;;;;;;;3.47;1.83;;;;;;;19.62;70.74;95086.09;4859936;29;20755;-80
2023/07/27 12:31:10;;;;;;;2.78;2.03;;;;;;;19.39;70.77;95084.81;4854043;29;20208;-79
2023/07/27 12:33:36;;;;;;;3.20;1.95;;;;;;;19.81;71.02;95074.59;4848573;29;20220;-80
2023/07/27 12:36:01;;;;;;;2.92;2.13;;;;;;;19.80;71.42;95079.06;4853552;29;20249;-79
2023/07/27 12:38:26;;;;;;;2.88;2.20;;;;;;;19.77;71.17;95083.94;4857978;29;20223;-80
2023/07/27 12:40:52;;;;;;;2.53;1.92;;;;;;;19.55;71.23;95074.78;4856825;29;20224;-76
2023/07/27 12:43:17;;;;;;;3.47;1.65;;;;;;;19.99;70.62;95065.91;4858344;29;20251;-76
2023/07/27 12:45:42;;;;;;;2.45;2.25;;;;;;;20.21;70.35;95067.09;4866345;29;20195;-76
2023/07/27 12:48:08;;;;;;;2.20;2.00;;;;;;;20.26;68.07;95069.91;4863601;29;20180;-76
2023/07/27 12:50:33;;;;;;;2.70;1.85;;;;;;;20.69;68.43;95062.97;4867616;29;20184;-76
2023/07/27 12:52:58;;;;;;;2.88;2.17;;;;;;;20.69;68.99;95068.25;4856866;29;20220;-76
2023/07/27 12:55:24;;;;;;;4.35;2.00;;;;;;;21.09;68.25;95065.88;4862794;29;20200;-81
2023/07/27 12:57:50;;;;;;;3.00;1.88;;;;;;;21.01;69.14;95071.47;4857518;29;20191;-80
2023/07/27 13:00:16;;;;;;;3.83;1.88;;;;;;;20.63;68.68;95073.34;4872323;29;20222;-81
2023/07/27 13:02:42;;;;;;;2.47;1.83;;;;;;;20.49;69.14;95071.09;4855667;29;20598;-79
2023/07/27 13:05:12;;;;;;;3.28;1.92;;;;;;;20.90;69.21;95068.56;4873978;29;20187;-80
2023/07/27 13:07:41;;;;;;;4.85;2.30;;;;;;;20.71;68.09;95079.38;4874956;29;20618;-79
2023/07/27 13:10:08;;;;;;;2.88;2.20;;;;;;;20.69;69.92;95068.25;4860606;29;20195;-80
2023/07/27 13:12:37;;;;;;;3.63;2.30;;;;;;;20.57;68.45;95065.50;4860711;29;20209;-82
2023/07/27 13:15:03;;;;;;;2.65;2.13;;;;;;;20.52;69.04;95058.28;4877633;29;20565;-81
2023/07/27 13:17:29;;;;;;;2.92;1.90;;;;;;;20.85;68.77;95059.72;4881652;29;20192;-80
2023/07/27 13:20:31;;;;;;;2.15;1.63;;;;;;;21.04;69.08;95058.63;4863088;29;20219;-86
2023/07/27 13:23:12;;;;;;;5.13;2.05;;;;;;;20.92;67.94;95057.78;4881261;29;20243;-87
2023/07/27 13:25:51;;;;;;;2.97;1.83;;;;;;;20.56;65.05;95048.09;4854295;29;20200;-86
2023/07/27 13:29:10;;;;;;;5.22;1.83;;;;;;;20.75;65.18;95043.59;4880410;29;20199;-87
2023/07/27 13:32:22;;;;;;;2.10;1.85;;;;;;;20.49;66.75;95044.72;4757178;29;20200;-87
2023/07/27 13:35:01;;;;;;;2.80;1.60;;;;;;;20.85;66.03;95046.53;4848306;29;20659;-87
2023/07/27 13:37:32;;;;;;;3.42;1.83;;;;;;;20.81;64.07;95046.16;4845160;29;20192;-87
2023/07/27 13:40:29;;;;;;;;;;;;;;;;;;;;;
2023/07/27 13:46:04;;;;;;;2.22;1.65;;;;;;;20.70;63.51;95054.81;4871677;29;20203;-87
2023/07/27 13:51:33;;;;;;;2.08;1.58;;;;;;;20.73;65.21;95050.91;4845591;29;20204;-86
2023/07/27 13:54:27;;;;;;;2.85;1.98;;;;;;;20.63;65.25;95049.63;4859328;29;20200;-85
2023/07/27 13:56:58;;;;;;;2.65;1.70;;;;;;;20.68;65.14;95051.59;4848894;29;20204;-87
2023/07/27 13:59:59;;;;;;;2.03;1.90;;;;;;;21.06;63.93;95048.66;4824609;29;20290;-86
2023/07/27 14:12:54;;;;;;;2.13;1.83;;;;;;;20.72;64.08;95052.75;4857613;29;20228;-85
2023/07/27 14:15:26;;;;;;;2.78;2.50;;;;;;;20.60;63.40;95051.91;4841837;29;20651;-86
2023/07/27 14:17:51;;;;;;;5.45;2.10;;;;;;;21.03;62.92;95043.84;4843870;29;20327;-86
2023/07/27 14:20:20;;;;;;;1.92;1.83;;;;;;;21.17;62.62;95042.59;4843188;29;20300;-86
2023/07/27 14:22:49;;;;;;;2.13;1.80;;;;;;;21.44;61.57;95043.03;4858907;29;20225;-86
2023/07/27 14:25:14;;;;;;;2.22;1.92;;;;;;;21.32;62.15;95041.41;4843439;29;20188;-86
2023/07/27 14:27:42;;;;;;;1.80;1.70;;;;;;;21.42;62.45;95039.81;4848809;29;20195;-85